Time;durP1;ratioP1;P1;durP2;ratioP2;P2;SDS_P1;SDS_P2;PMS_P1;PMS_P2;Temp;Humidity;BMP_temperature;BMP_pressure;BME280_temperature;BME280_humidity;BME280_pressure;Samples;Min_cycle;Max_cycle;Signal;HPM_P1;HPM_P2
2022/05/28 00:01:07;;;;;;;4.28;1.52;;;;;;;;;;5052984;28;20205;-87
2022/05/28 00:03:35;;;;;;;4.10;1.30;;;;;;;;;;5052479;28;20197;-87
2022/05/28 00:06:03;;;;;;;2.85;1.45;;;;;;;;;;5052756;28;20206;-86
2022/05/28 00:08:31;;;;;;;1.88;1.15;;;;;;;;;;5052865;28;20226;-87
2022/05/28 00:10:59;;;;;;;3.00;1.80;;;;;;;;;;5052836;28;20212;-87
2022/05/28 00:13:28;;;;;;;2.63;1.90;;;;;;;;;;5051993;28;20275;-87
2022/05/28 00:15:56;;;;;;;2.90;1.40;;;;;;;;;;5052977;28;20202;-87
2022/05/28 00:18:23;;;;;;;2.35;1.48;;;;;;;;;;5052207;28;20234;-87
2022/05/28 00:20:50;;;;;;;3.80;1.60;;;;;;;;;;5052898;28;20205;-87
2022/05/28 00:23:17;;;;;;;2.95;1.80;;;;;;;;;;5050746;28;20200;-86
2022/05/28 00:25:45;;;;;;;3.03;1.40;;;;;;;;;;5051304;28;20662;-87
2022/05/28 00:28:14;;;;;;;1.42;1.30;;;;;;;;;;5052291;28;20252;-87
2022/05/28 00:30:43;;;;;;;2.38;1.40;;;;;;;;;;5050954;28;20669;-86
2022/05/28 00:33:10;;;;;;;4.40;1.30;;;;;;;;;;5052095;28;20631;-87
2022/05/28 00:35:37;;;;;;;2.90;1.60;;;;;;;;;;5052720;28;20206;-87
2022/05/28 00:38:05;;;;;;;3.38;1.58;;;;;;;;;;5052239;28;20225;-87
2022/05/28 00:40:33;;;;;;;3.35;2.05;;;;;;;;;;5052723;28;20208;-86
2022/05/28 00:43:02;;;;;;;1.95;1.23;;;;;;;;;;5052048;28;20204;-86
2022/05/28 00:45:31;;;;;;;1.52;1.20;;;;;;;;;;5052335;28;20205;-86
2022/05/28 00:48:04;;;;;;;2.72;1.52;;;;;;;;;;5052573;28;20221;-87
2022/05/28 00:50:32;;;;;;;1.58;1.42;;;;;;;;;;5052270;28;20205;-87
2022/05/28 00:53:00;;;;;;;2.05;1.60;;;;;;;;;;5051401;28;20570;-87
2022/05/28 00:55:27;;;;;;;3.42;1.73;;;;;;;;;;5052636;28;20206;-86
2022/05/28 00:57:54;;;;;;;2.00;1.35;;;;;;;;;;5052309;28;20226;-87
2022/05/28 01:00:24;;;;;;;1.30;1.20;;;;;;;;;;5052182;28;20206;-87
2022/05/28 01:02:54;;;;;;;3.25;1.20;;;;;;;;;;5052006;28;20209;-87
2022/05/28 01:05:28;;;;;;;3.80;1.48;;;;;;;;;;5052261;28;20228;-87
2022/05/28 01:08:08;;;;;;;4.75;1.98;;;;;;;;;;5052305;28;20222;-87
2022/05/28 01:10:43;;;;;;;5.50;1.63;;;;;;;;;;5052277;28;20192;-87
2022/05/28 01:13:15;;;;;;;2.63;1.52;;;;;;;;;;5051610;28;20229;-87
2022/05/28 01:15:48;;;;;;;3.20;1.33;;;;;;;;;;5052369;28;20186;-87
2022/05/28 01:18:20;;;;;;;1.85;1.50;;;;;;;;;;5051511;28;20290;-86
2022/05/28 01:20:53;;;;;;;3.63;1.55;;;;;;;;;;5052186;28;20663;-87
2022/05/28 01:23:37;;;;;;;3.60;1.48;;;;;;;;;;5050594;28;20202;-87
2022/05/28 01:26:12;;;;;;;3.33;1.40;;;;;;;;;;5052033;28;20201;-87
2022/05/28 01:28:43;;;;;;;2.50;1.40;;;;;;;;;;5051635;28;20222;-87
2022/05/28 01:31:12;;;;;;;2.78;1.60;;;;;;;;;;5051807;28;20683;-87
2022/05/28 01:33:42;;;;;;;2.80;1.73;;;;;;;;;;5050999;28;20586;-87
2022/05/28 01:36:12;;;;;;;4.22;1.70;;;;;;;;;;5051739;28;20198;-87
2022/05/28 01:38:40;;;;;;;3.65;1.67;;;;;;;;;;5053204;28;20714;-87
2022/05/28 01:41:09;;;;;;;2.50;1.75;;;;;;;;;;5054925;28;20205;-87
2022/05/28 01:43:37;;;;;;;1.88;1.20;;;;;;;;;;5054765;28;20197;-87
2022/05/28 01:46:06;;;;;;;3.10;1.60;;;;;;;;;;5054968;28;20206;-87
2022/05/28 01:48:35;;;;;;;1.70;1.52;;;;;;;;;;5054276;28;20605;-87
2022/05/28 01:51:03;;;;;;;1.98;1.35;;;;;;;;;;5055007;28;20660;-87
2022/05/28 01:56:16;;;;;;;2.42;1.25;;;;;;;;;;5054920;28;20220;-87
2022/05/28 01:58:43;;;;;;;1.85;1.30;;;;;;;;;;5054609;28;20214;-87
2022/05/28 02:01:12;;;;;;;3.55;1.83;;;;;;;;;;5055002;28;20206;-87
2022/05/28 02:03:43;;;;;;;3.55;1.95;;;;;;;;;;5054197;28;20205;-88
2022/05/28 02:06:11;;;;;;;4.05;1.98;;;;;;;;;;5054702;28;20186;-87
2022/05/28 02:08:41;;;;;;;2.72;2.20;;;;;;;;;;5054500;28;20232;-87
2022/05/28 02:11:13;;;;;;;5.47;2.30;;;;;;;;;;5054568;28;20174;-87
2022/05/28 02:14:01;;;;;;;2.95;1.88;;;;;;;;;;5054099;28;20197;-87
2022/05/28 02:16:36;;;;;;;2.70;2.42;;;;;;;;;;5054700;28;20194;-87
2022/05/28 02:19:09;;;;;;;5.07;2.60;;;;;;;;;;5053853;28;20229;-87
2022/05/28 02:21:44;;;;;;;3.40;2.08;;;;;;;;;;5054084;28;20190;-88
2022/05/28 02:24:17;;;;;;;2.17;1.55;;;;;;;;;;5054335;28;20672;-87
2022/05/28 02:26:48;;;;;;;4.57;1.80;;;;;;;;;;5054382;28;20182;-87
2022/05/28 02:29:16;;;;;;;4.15;1.55;;;;;;;;;;5054067;28;20229;-87
2022/05/28 02:31:48;;;;;;;4.45;2.08;;;;;;;;;;5053340;28;20209;-87
2022/05/28 02:34:15;;;;;;;6.97;2.75;;;;;;;;;;5054250;28;20225;-87
2022/05/28 02:36:43;;;;;;;4.85;1.70;;;;;;;;;;5054431;28;20202;-87
2022/05/28 02:39:11;;;;;;;2.33;1.70;;;;;;;;;;5053780;28;20226;-87
2022/05/28 02:41:39;;;;;;;3.25;1.77;;;;;;;;;;5053823;28;20198;-87
2022/05/28 02:44:06;;;;;;;3.90;1.67;;;;;;;;;;5054066;28;20216;-86
2022/05/28 02:46:35;;;;;;;2.17;1.80;;;;;;;;;;5053672;28;20209;-87
2022/05/28 02:49:04;;;;;;;2.80;1.55;;;;;;;;;;5052977;28;20274;-86
2022/05/28 02:51:31;;;;;;;2.55;1.70;;;;;;;;;;5053899;28;20205;-89
2022/05/28 02:53:58;;;;;;;2.65;1.77;;;;;;;;;;5053091;28;20304;-87
2022/05/28 02:56:25;;;;;;;2.72;1.60;;;;;;;;;;5054038;28;20198;-88
2022/05/28 02:58:53;;;;;;;6.13;2.50;;;;;;;;;;5053466;28;20217;-86
2022/05/28 03:01:26;;;;;;;4.40;1.83;;;;;;;;;;5053687;28;20209;-88
2022/05/28 03:03:54;;;;;;;2.47;2.03;;;;;;;;;;5053301;28;20177;-87
2022/05/28 03:06:22;;;;;;;3.03;1.90;;;;;;;;;;5053512;28;20202;-87
2022/05/28 03:08:50;;;;;;;4.40;2.35;;;;;;;;;;5052901;28;20222;-86
2022/05/28 03:11:17;;;;;;;2.45;1.55;;;;;;;;;;5053347;28;20553;-87
2022/05/28 03:13:44;;;;;;;2.55;1.60;;;;;;;;;;5053053;28;20209;-86
2022/05/28 03:16:12;;;;;;;3.85;2.03;;;;;;;;;;5053081;28;20209;-87
2022/05/28 03:18:40;;;;;;;4.45;1.63;;;;;;;;;;5052559;28;20221;-86
2022/05/28 03:21:08;;;;;;;3.15;1.48;;;;;;;;;;5052075;28;20201;-87
2022/05/28 03:23:37;;;;;;;3.90;2.45;;;;;;;;;;5052799;28;20212;-87
2022/05/28 03:26:15;;;;;;;5.80;1.88;;;;;;;;;;5053190;28;20198;-87
2022/05/28 03:28:42;;;;;;;3.92;1.55;;;;;;;;;;5053109;28;20225;-87
2022/05/28 03:31:10;;;;;;;1.63;1.38;;;;;;;;;;5052564;28;20208;-87
2022/05/28 03:33:37;;;;;;;4.50;2.70;;;;;;;;;;5052512;28;20201;-87
2022/05/28 03:36:05;;;;;;;4.03;1.77;;;;;;;;;;5052732;28;20221;-86
2022/05/28 03:38:33;;;;;;;1.75;1.20;;;;;;;;;;5052695;28;20316;-87
2022/05/28 03:41:02;;;;;;;1.70;1.60;;;;;;;;;;5052901;28;20197;-87
2022/05/28 03:43:30;;;;;;;3.28;1.40;;;;;;;;;;5052565;28;20201;-87
2022/05/28 03:45:58;;;;;;;2.50;1.40;;;;;;;;;;5052888;28;20198;-87
2022/05/28 03:48:25;;;;;;;1.60;1.40;;;;;;;;;;5052264;28;20218;-88
2022/05/28 03:50:52;;;;;;;3.85;2.05;;;;;;;;;;5052785;28;20190;-88
2022/05/28 03:53:20;;;;;;;2.25;1.48;;;;;;;;;;5052290;28;20190;-88
2022/05/28 03:55:47;;;;;;;2.42;2.15;;;;;;;;;;5052659;28;20515;-87
2022/05/28 03:58:16;;;;;;;3.20;1.98;;;;;;;;;;5052470;28;20573;-87
2022/05/28 04:00:44;;;;;;;2.28;1.80;;;;;;;;;;5052605;28;20248;-88
2022/05/28 04:03:11;;;;;;;2.47;1.20;;;;;;;;;;5051972;28;20580;-89
2022/05/28 04:05:39;;;;;;;2.20;1.40;;;;;;;;;;5052435;28;20194;-87
2022/05/28 04:08:08;;;;;;;2.70;1.63;;;;;;;;;;5052301;28;20228;-87
2022/05/28 04:10:35;;;;;;;3.10;1.65;;;;;;;;;;5052157;28;20232;-88
2022/05/28 04:13:03;;;;;;;5.80;2.28;;;;;;;;;;5051473;28;20204;-87
2022/05/28 04:15:32;;;;;;;1.95;1.20;;;;;;;;;;5052125;28;20593;-87
2022/05/28 04:18:00;;;;;;;2.20;1.08;;;;;;;;;;5051974;28;20221;-88
2022/05/28 04:20:27;;;;;;;3.42;1.88;;;;;;;;;;5052083;28;20209;-87
2022/05/28 04:22:55;;;;;;;3.35;1.92;;;;;;;;;;5051724;28;20208;-87
2022/05/28 04:25:22;;;;;;;1.48;1.30;;;;;;;;;;5051994;28;20247;-87
2022/05/28 04:27:49;;;;;;;1.58;1.25;;;;;;;;;;5051914;28;20263;-88
2022/05/28 04:30:17;;;;;;;2.10;1.70;;;;;;;;;;5052376;28;20201;-88
2022/05/28 04:32:45;;;;;;;9.93;2.58;;;;;;;;;;5051747;28;20201;-87
2022/05/28 04:35:13;;;;;;;4.63;1.52;;;;;;;;;;5052207;28;20226;-87
2022/05/28 04:37:40;;;;;;;3.22;2.25;;;;;;;;;;5051860;28;20229;-87
2022/05/28 04:40:10;;;;;;;7.32;2.10;;;;;;;;;;5052055;28;20316;-87
2022/05/28 04:42:37;;;;;;;6.22;2.97;;;;;;;;;;5052190;28;20255;-86
2022/05/28 04:45:06;;;;;;;3.90;1.80;;;;;;;;;;5051643;28;20204;-87
2022/05/28 04:47:33;;;;;;;5.55;2.45;;;;;;;;;;5051277;28;20709;-87
2022/05/28 04:50:02;;;;;;;4.22;1.60;;;;;;;;;;5052660;28;20612;-87
2022/05/28 04:52:29;;;;;;;4.47;1.65;;;;;;;;;;5051875;28;20700;-86
2022/05/28 04:54:57;;;;;;;3.55;1.63;;;;;;;;;;5051759;28;20222;-87
2022/05/28 04:57:24;;;;;;;4.13;1.35;;;;;;;;;;5051568;28;20639;-87
2022/05/28 04:59:51;;;;;;;3.42;1.90;;;;;;;;;;5051779;28;20681;-87
2022/05/28 05:02:19;;;;;;;2.42;1.88;;;;;;;;;;5052061;28;20194;-86
2022/05/28 05:04:46;;;;;;;4.90;2.30;;;;;;;;;;5052181;28;20205;-86
2022/05/28 05:07:15;;;;;;;2.42;1.35;;;;;;;;;;5051644;28;20212;-87
2022/05/28 05:09:42;;;;;;;2.22;1.60;;;;;;;;;;5052234;28;20209;-87
2022/05/28 05:12:10;;;;;;;4.30;1.85;;;;;;;;;;5051727;28;20209;-86
2022/05/28 05:14:37;;;;;;;2.03;1.75;;;;;;;;;;5055990;28;20592;-86
2022/05/28 05:17:05;;;;;;;2.70;1.77;;;;;;;;;;5055434;28;20217;-86
2022/05/28 05:19:33;;;;;;;7.90;1.90;;;;;;;;;;5056080;28;20210;-85
2022/05/28 05:22:00;;;;;;;4.50;1.77;;;;;;;;;;5055640;28;20213;-87
2022/05/28 05:24:29;;;;;;;3.70;1.73;;;;;;;;;;5057233;28;20206;-84
2022/05/28 05:26:56;;;;;;;7.32;1.90;;;;;;;;;;5056598;28;20208;-84
2022/05/28 05:29:23;;;;;;;2.10;1.60;;;;;;;;;;5056624;28;20208;-84
2022/05/28 05:31:50;;;;;;;2.55;1.63;;;;;;;;;;5056631;28;20216;-84
2022/05/28 05:34:18;;;;;;;3.67;1.77;;;;;;;;;;5056979;28;20647;-83
2022/05/28 05:36:45;;;;;;;1.88;1.38;;;;;;;;;;5056741;28;20228;-83
2022/05/28 05:39:12;;;;;;;3.42;1.85;;;;;;;;;;5056499;28;20312;-83
2022/05/28 05:41:42;;;;;;;4.22;1.48;;;;;;;;;;5056607;28;20205;-84
2022/05/28 05:44:10;;;;;;;3.25;1.55;;;;;;;;;;5057384;28;20202;-82
2022/05/28 05:46:40;;;;;;;5.97;1.48;;;;;;;;;;5056526;28;20197;-83
2022/05/28 05:49:08;;;;;;;3.58;1.80;;;;;;;;;;5056551;28;20256;-82
2022/05/28 05:51:42;;;;;;;1.67;1.00;;;;;;;;;;5055892;28;20221;-83
2022/05/28 05:54:10;;;;;;;3.55;1.50;;;;;;;;;;5056078;28;20212;-85
2022/05/28 05:56:37;;;;;;;4.55;1.67;;;;;;;;;;5055682;28;20626;-83
2022/05/28 05:59:06;;;;;;;2.15;1.30;;;;;;;;;;5056304;28;20229;-83
2022/05/28 06:01:34;;;;;;;1.42;1.20;;;;;;;;;;5056205;28;20202;-83
2022/05/28 06:04:01;;;;;;;3.03;1.88;;;;;;;;;;5056063;28;20204;-84
2022/05/28 06:06:28;;;;;;;1.75;1.13;;;;;;;;;;5057267;28;20197;-83
2022/05/28 06:08:56;;;;;;;2.53;1.95;;;;;;;;;;5055710;28;20229;-83
2022/05/28 06:11:23;;;;;;;3.17;1.75;;;;;;;;;;5055644;28;20201;-83
2022/05/28 06:13:50;;;;;;;2.00;1.15;;;;;;;;;;5055077;28;20201;-83
2022/05/28 06:16:19;;;;;;;2.55;1.42;;;;;;;;;;5055940;28;20225;-84
2022/05/28 06:18:47;;;;;;;1.83;1.38;;;;;;;;;;5055826;28;20694;-83
2022/05/28 06:21:14;;;;;;;2.45;1.20;;;;;;;;;;5055194;28;20216;-84
2022/05/28 06:23:42;;;;;;;1.52;1.20;;;;;;;;;;5055670;28;20213;-83
2022/05/28 06:26:10;;;;;;;2.03;1.20;;;;;;;;;;5055660;28;20197;-83
2022/05/28 06:28:37;;;;;;;4.03;1.60;;;;;;;;;;5055676;28;20221;-83
2022/05/28 06:31:07;;;;;;;3.85;1.45;;;;;;;;;;5055367;28;20202;-83
2022/05/28 06:33:37;;;;;;;3.50;1.45;;;;;;;;;;5056078;28;20283;-82
2022/05/28 06:36:08;;;;;;;4.03;1.50;;;;;;;;;;5055456;28;20233;-84
2022/05/28 06:38:35;;;;;;;2.35;1.40;;;;;;;;;;5054820;28;20232;-83
2022/05/28 06:41:03;;;;;;;2.08;1.20;;;;;;;;;;5056169;28;20248;-82
2022/05/28 06:43:31;;;;;;;3.90;1.50;;;;;;;;;;5055700;28;20577;-83
2022/05/28 06:46:02;;;;;;;3.53;1.95;;;;;;;;;;5055445;28;20198;-83
2022/05/28 06:48:29;;;;;;;2.35;1.40;;;;;;;;;;5055412;28;20304;-84
2022/05/28 06:51:04;;;;;;;2.85;1.58;;;;;;;;;;5061199;28;20198;-84
2022/05/28 06:53:34;;;;;;;2.38;1.67;;;;;;;;;;5054989;28;20218;-83
2022/05/28 06:56:01;;;;;;;3.67;1.40;;;;;;;;;;5055395;28;20204;-84
2022/05/28 06:58:29;;;;;;;1.95;1.40;;;;;;;;;;5055271;28;20275;-83
2022/05/28 07:00:56;;;;;;;2.03;1.35;;;;;;;;;;5055516;28;20202;-82
2022/05/28 07:03:25;;;;;;;3.35;1.40;;;;;;;;;;5055324;28;20205;-82
2022/05/28 07:05:53;;;;;;;2.28;1.20;;;;;;;;;;5054998;28;20675;-83
2022/05/28 07:08:23;;;;;;;3.90;1.63;;;;;;;;;;5052866;28;20214;-89
2022/05/28 07:10:52;;;;;;;2.58;1.35;;;;;;;;;;5054096;28;20198;-87
2022/05/28 07:13:21;;;;;;;2.47;1.38;;;;;;;;;;5054479;28;20572;-85
2022/05/28 07:15:49;;;;;;;3.50;1.50;;;;;;;;;;5054898;28;20243;-84
2022/05/28 07:18:16;;;;;;;2.42;1.50;;;;;;;;;;5055004;28;20222;-83
2022/05/28 07:20:44;;;;;;;3.90;1.20;;;;;;;;;;5054503;28;20202;-85
2022/05/28 07:23:14;;;;;;;2.80;1.60;;;;;;;;;;5054869;28;20639;-86
2022/05/28 07:25:44;;;;;;;3.03;1.48;;;;;;;;;;5055420;28;20202;-85
2022/05/28 07:28:29;;;;;;;2.38;1.40;;;;;;;;;;5054625;28;20210;-84
2022/05/28 07:30:58;;;;;;;5.10;1.65;;;;;;;;;;5055046;28;20202;-83
2022/05/28 07:33:26;;;;;;;4.00;1.88;;;;;;;;;;5054137;28;20255;-84
2022/05/28 07:35:54;;;;;;;4.22;1.60;;;;;;;;;;5053934;28;20564;-84
2022/05/28 07:38:22;;;;;;;3.38;1.40;;;;;;;;;;5054533;28;20225;-85
2022/05/28 07:40:51;;;;;;;2.78;1.30;;;;;;;;;;5055121;28;20201;-84
2022/05/28 07:43:19;;;;;;;3.60;1.60;;;;;;;;;;5056519;28;20186;-83
2022/05/28 07:45:48;;;;;;;2.13;1.33;;;;;;;;;;5055725;28;20662;-84
2022/05/28 07:48:17;;;;;;;1.85;1.73;;;;;;;;;;5055284;28;20596;-84
2022/05/28 07:50:45;;;;;;;3.95;1.65;;;;;;;;;;5057368;28;20586;-85
2022/05/28 07:53:13;;;;;;;3.05;1.75;;;;;;;;;;5055369;28;20618;-84
2022/05/28 07:55:41;;;;;;;1.63;1.25;;;;;;;;;;5055050;28;20228;-83
2022/05/28 07:58:12;;;;;;;5.15;1.52;;;;;;;;;;5054101;28;20225;-85
2022/05/28 08:00:41;;;;;;;3.83;1.50;;;;;;;;;;5056219;28;20186;-84
2022/05/28 08:03:09;;;;;;;1.27;1.17;;;;;;;;;;5055481;28;20201;-83
2022/05/28 08:05:38;;;;;;;2.53;1.23;;;;;;;;;;5054836;28;20201;-83
2022/05/28 08:08:06;;;;;;;3.60;1.38;;;;;;;;;;5054457;28;20222;-84
2022/05/28 08:10:33;;;;;;;4.10;1.55;;;;;;;;;;5054705;28;20213;-84
2022/05/28 08:13:02;;;;;;;2.35;1.33;;;;;;;;;;5054378;28;20199;-84
2022/05/28 08:15:31;;;;;;;1.40;1.10;;;;;;;;;;5056103;28;20201;-83
2022/05/28 08:17:59;;;;;;;1.63;1.15;;;;;;;;;;5056321;28;20225;-84
2022/05/28 08:23:10;;;;;;;1.88;1.48;;;;;;;;;;5074969;28;20230;-85
2022/05/28 08:25:40;;;;;;;1.88;1.17;;;;;;;;;;5077009;28;20204;-84
2022/05/28 08:28:08;;;;;;;2.95;1.83;;;;;;;;;;5076828;28;20249;-84
2022/05/28 08:30:38;;;;;;;3.65;1.25;;;;;;;;;;5076712;28;20207;-85
2022/05/28 08:33:06;;;;;;;2.90;1.33;;;;;;;;;;5077268;28;20720;-84
2022/05/28 08:35:33;;;;;;;2.75;1.30;;;;;;;;;;5078196;28;20204;-85
2022/05/28 08:38:05;;;;;;;1.45;1.17;;;;;;;;;;5078139;28;20697;-85
2022/05/28 08:40:43;;;;;;;2.88;1.45;;;;;;;;;;5074562;28;20239;-84
2022/05/28 08:43:11;;;;;;;4.20;2.05;;;;;;;;;;5075891;28;20185;-85
2022/05/28 08:45:40;;;;;;;4.57;1.30;;;;;;;;;;5075164;28;20204;-84
2022/05/28 08:48:08;;;;;;;2.28;1.63;;;;;;;;;;5077227;28;20223;-85
2022/05/28 08:50:41;;;;;;;1.95;1.45;;;;;;;;;;5078785;28;20200;-84
2022/05/28 08:53:15;;;;;;;2.35;1.40;;;;;;;;;;5078746;28;20177;-85
2022/05/28 08:55:46;;;;;;;2.55;1.27;;;;;;;;;;5079442;28;20215;-85
2022/05/28 08:58:16;;;;;;;2.53;2.08;;;;;;;;;;5080079;28;20232;-84
2022/05/28 09:00:50;;;;;;;3.60;1.30;;;;;;;;;;5080061;28;20677;-85
2022/05/28 09:03:22;;;;;;;3.03;1.23;;;;;;;;;;5080276;28;20181;-84
2022/05/28 09:05:53;;;;;;;3.30;1.10;;;;;;;;;;5079516;28;20185;-85
2022/05/28 09:08:27;;;;;;;5.00;1.63;;;;;;;;;;5077530;28;20307;-85
2022/05/28 09:10:56;;;;;;;1.83;0.82;;;;;;;;;;5077687;28;20173;-85
2022/05/28 09:13:30;;;;;;;3.40;1.08;;;;;;;;;;5078368;28;20181;-84
2022/05/28 09:15:59;;;;;;;9.90;1.63;;;;;;;;;;5079134;28;20188;-84
2022/05/28 09:18:31;;;;;;;1.73;1.20;;;;;;;;;;5077762;28;20228;-86
2022/05/28 09:20:58;;;;;;;1.48;1.25;;;;;;;;;;5080191;28;20188;-84
2022/05/28 09:23:27;;;;;;;1.65;1.20;;;;;;;;;;5080080;28;20208;-84
2022/05/28 09:25:59;;;;;;;1.90;1.48;;;;;;;;;;5081189;28;20222;-85
2022/05/28 09:28:37;;;;;;;1.60;1.10;;;;;;;;;;5082333;28;20221;-85
2022/05/28 09:31:19;;;;;;;1.13;1.00;;;;;;;;;;5080065;28;20184;-85
2022/05/28 09:34:08;;;;;;;1.77;1.20;;;;;;;;;;5078413;28;20189;-85
2022/05/28 09:36:44;;;;;;;5.88;1.50;;;;;;;;;;5078390;28;20626;-85
2022/05/28 09:39:25;;;;;;;1.70;1.23;;;;;;;;;;5078557;28;20231;-85
2022/05/28 09:42:03;;;;;;;2.00;1.52;;;;;;;;;;5081507;28;20204;-85
2022/05/28 09:44:47;;;;;;;1.60;1.10;;;;;;;;;;5079998;28;20628;-85
2022/05/28 09:47:17;;;;;;;1.10;0.82;;;;;;;;;;5077888;28;20193;-85
2022/05/28 09:49:50;;;;;;;1.15;1.05;;;;;;;;;;5064785;28;20205;-86
2022/05/28 09:52:28;;;;;;;1.92;0.90;;;;;;;;;;5057328;28;20650;-85
2022/05/28 09:55:13;;;;;;;1.40;1.23;;;;;;;;;;5058625;28;20190;-86
2022/05/28 09:57:46;;;;;;;3.63;1.40;;;;;;;;;;5058330;28;20256;-84
2022/05/28 10:00:15;;;;;;;1.33;1.02;;;;;;;;;;5057485;28;20218;-84
2022/05/28 10:04:28;;;;;;;1.60;1.00;;;;;;;;;;5057386;28;20198;-84
2022/05/28 10:05:34;;;;;;;2.90;1.52;;;;;;;;;;5058688;28;20209;-84
2022/05/28 10:08:11;;;;;;;1.30;1.20;;;;;;;;;;5059921;28;20770;-84
2022/05/28 10:10:40;;;;;;;1.73;1.00;;;;;;;;;;5059423;28;20209;-84
2022/05/28 10:13:13;;;;;;;2.38;1.23;;;;;;;;;;5060224;28;20224;-86
2022/05/28 10:15:44;;;;;;;1.88;1.13;;;;;;;;;;5058289;28;20194;-85
2022/05/28 10:18:17;;;;;;;2.78;1.40;;;;;;;;;;5057537;28;20693;-85
2022/05/28 10:20:44;;;;;;;2.17;1.38;;;;;;;;;;5056143;28;20190;-85
2022/05/28 10:23:16;;;;;;;1.90;1.10;;;;;;;;;;5055269;28;20565;-85
2022/05/28 10:25:48;;;;;;;1.33;1.17;;;;;;;;;;5055768;28;20244;-87
2022/05/28 10:28:26;;;;;;;2.47;1.20;;;;;;;;;;5055287;28;20296;-83
2022/05/28 10:30:53;;;;;;;3.28;1.65;;;;;;;;;;5056320;28;20185;-84
2022/05/28 10:33:25;;;;;;;4.18;1.88;;;;;;;;;;5055167;28;20208;-83
2022/05/28 10:35:53;;;;;;;1.23;1.08;;;;;;;;;;5055324;28;20186;-83
2022/05/28 10:38:24;;;;;;;2.17;1.02;;;;;;;;;;5054592;28;20221;-85
2022/05/28 10:40:54;;;;;;;3.17;1.00;;;;;;;;;;5054811;28;20206;-86
2022/05/28 10:43:29;;;;;;;0.98;0.88;;;;;;;;;;5054497;28;20725;-81
2022/05/28 10:46:08;;;;;;;1.30;1.08;;;;;;;;;;5054804;28;20181;-86
2022/05/28 10:48:55;;;;;;;1.58;0.95;;;;;;;;;;5054601;28;20228;-86
2022/05/28 10:51:31;;;;;;;1.20;1.10;;;;;;;;;;5054156;28;20198;-88
2022/05/28 10:54:19;;;;;;;3.85;1.20;;;;;;;;;;5053804;28;20182;-87
2022/05/28 10:56:55;;;;;;;0.98;0.88;;;;;;;;;;5054058;28;20268;-87
2022/05/28 10:59:51;;;;;;;4.70;1.55;;;;;;;;;;5053971;28;20244;-87
2022/05/28 11:02:44;;;;;;;1.85;1.45;;;;;;;;;;5053885;28;20585;-87
2022/05/28 11:05:21;;;;;;;2.10;1.30;;;;;;;;;;5054259;28;20295;-88
2022/05/28 11:07:55;;;;;;;2.08;1.67;;;;;;;;;;5053895;28;20304;-89
2022/05/28 11:10:53;;;;;;;1.75;1.08;;;;;;;;;;5053211;28;20182;-88
2022/05/28 11:13:57;;;;;;;2.33;1.08;;;;;;;;;;5054178;28;20646;-89
2022/05/28 11:16:46;;;;;;;1.40;1.13;;;;;;;;;;5022445;28;20201;-88
2022/05/28 11:19:27;;;;;;;2.47;0.90;;;;;;;;;;5053889;28;20229;-88
2022/05/28 11:22:23;;;;;;;2.40;1.10;;;;;;;;;;5053647;28;20562;-88
2022/05/28 11:24:54;;;;;;;2.08;1.08;;;;;;;;;;5036778;28;20205;-87
2022/05/28 11:27:42;;;;;;;0.90;0.73;;;;;;;;;;5053558;28;20230;-87
2022/05/28 11:30:14;;;;;;;1.17;1.00;;;;;;;;;;5053546;28;20182;-88
2022/05/28 11:32:46;;;;;;;2.55;1.25;;;;;;;;;;5053663;28;20178;-88
2022/05/28 11:35:25;;;;;;;2.08;0.90;;;;;;;;;;5053395;28;20185;-88
2022/05/28 11:37:58;;;;;;;0.68;0.68;;;;;;;;;;5053337;28;20229;-88
2022/05/28 11:40:28;;;;;;;0.90;0.60;;;;;;;;;;5052539;28;20597;-88
2022/05/28 11:43:01;;;;;;;2.30;1.15;;;;;;;;;;5054298;28;20217;-87
2022/05/28 11:45:37;;;;;;;0.70;0.70;;;;;;;;;;5054994;28;20182;-88
2022/05/28 11:48:08;;;;;;;1.38;0.95;;;;;;;;;;5054741;28;20326;-89
2022/05/28 11:53:35;;;;;;;3.58;1.00;;;;;;;;;;5052848;28;20304;-88
2022/05/28 11:56:07;;;;;;;1.15;0.90;;;;;;;;;;5053479;28;20236;-87
2022/05/28 11:58:40;;;;;;;1.48;0.93;;;;;;;;;;5053392;28;20236;-88
2022/05/28 12:01:12;;;;;;;2.03;1.02;;;;;;;;;;5053489;28;20193;-88
2022/05/28 12:03:40;;;;;;;1.38;1.05;;;;;;;;;;5053282;28;20177;-88
2022/05/28 12:06:23;;;;;;;2.15;0.93;;;;;;;;;;5053153;28;20701;-89
2022/05/28 12:09:03;;;;;;;1.25;0.85;;;;;;;;;;5053410;28;20225;-88
2022/05/28 12:11:40;;;;;;;1.98;1.15;;;;;;;;;;5053136;28;20200;-88
2022/05/28 12:14:20;;;;;;;1.75;1.15;;;;;;;;;;5053337;28;20297;-88
2022/05/28 12:17:03;;;;;;;0.90;0.80;;;;;;;;;;5053370;28;20225;-88
2022/05/28 12:19:31;;;;;;;3.30;0.88;;;;;;;;;;5053336;28;20575;-88
2022/05/28 12:22:27;;;;;;;2.00;1.00;;;;;;;;;;5052871;28;20209;-88
2022/05/28 12:25:21;;;;;;;1.65;1.20;;;;;;;;;;5052746;28;20201;-88
2022/05/28 12:28:08;;;;;;;3.35;1.40;;;;;;;;;;5052644;28;20218;-89
2022/05/28 12:30:49;;;;;;;2.70;1.30;;;;;;;;;;5053108;28;20190;-88
2022/05/28 12:33:27;;;;;;;2.05;1.20;;;;;;;;;;5052470;28;20200;-89
2022/05/28 12:36:03;;;;;;;2.20;1.13;;;;;;;;;;5052983;28;20182;-88
2022/05/28 12:38:50;;;;;;;1.25;1.00;;;;;;;;;;5052684;28;20221;-87
2022/05/28 12:41:23;;;;;;;1.48;1.13;;;;;;;;;;5052529;28;20245;-88
2022/05/28 12:43:59;;;;;;;1.67;1.20;;;;;;;;;;5052726;28;20181;-88
2022/05/28 12:46:43;;;;;;;1.55;1.20;;;;;;;;;;5052664;28;20223;-88
2022/05/28 12:49:19;;;;;;;1.60;1.40;;;;;;;;;;5052976;28;20322;-89
2022/05/28 12:52:02;;;;;;;1.48;1.00;;;;;;;;;;5052471;28;20565;-87
2022/05/28 12:54:32;;;;;;;2.63;1.35;;;;;;;;;;5053027;28;20190;-86
2022/05/28 12:57:14;;;;;;;4.82;1.40;;;;;;;;;;5053191;28;20194;-86
2022/05/28 12:59:44;;;;;;;2.15;1.40;;;;;;;;;;5053231;28;20206;-87
2022/05/28 13:02:30;;;;;;;0.93;0.82;;;;;;;;;;5052992;28;20196;-86
2022/05/28 13:05:07;;;;;;;2.28;1.10;;;;;;;;;;5052705;28;20224;-87
2022/05/28 13:07:37;;;;;;;1.65;0.85;;;;;;;;;;5053403;28;20217;-86
2022/05/28 13:10:14;;;;;;;3.22;0.88;;;;;;;;;;5052290;28;20205;-86
2022/05/28 13:12:55;;;;;;;1.40;1.30;;;;;;;;;;5052884;28;20192;-85
2022/05/28 13:15:59;;;;;;;1.67;0.85;;;;;;;;;;5052517;28;20186;-86
2022/05/28 13:19:03;;;;;;;0.85;0.85;;;;;;;;;;5037484;28;20225;-87
2022/05/28 13:21:52;;;;;;;1.90;1.10;;;;;;;;;;5052497;28;20206;-87
2022/05/28 13:24:54;;;;;;;9.13;3.10;;;;;;;;;;5052777;28;20653;-87
2022/05/28 13:27:47;;;;;;;2.25;1.50;;;;;;;;;;5052040;28;20217;-86
2022/05/28 13:30:16;;;;;;;1.65;1.52;;;;;;;;;;5051912;28;20201;-86
2022/05/28 13:32:49;;;;;;;1.67;1.10;;;;;;;;;;5051642;28;20217;-87
2022/05/28 13:35:17;;;;;;;3.80;1.30;;;;;;;;;;5056005;28;20197;-87
2022/05/28 13:37:52;;;;;;;1.40;1.30;;;;;;;;;;5055125;28;20261;-86
2022/05/28 13:40:23;;;;;;;1.35;0.95;;;;;;;;;;5054018;28;20212;-86
2022/05/28 13:42:53;;;;;;;2.25;1.27;;;;;;;;;;5054885;28;20236;-86
2022/05/28 13:45:28;;;;;;;1.20;0.90;;;;;;;;;;5055266;28;20201;-86
2022/05/28 13:47:56;;;;;;;2.78;1.60;;;;;;;;;;5055140;28;20224;-87
2022/05/28 13:50:27;;;;;;;2.58;1.20;;;;;;;;;;5055572;28;20205;-88
2022/05/28 13:52:56;;;;;;;2.50;1.17;;;;;;;;;;5055302;28;20635;-87
2022/05/28 13:55:26;;;;;;;1.85;1.30;;;;;;;;;;5055511;28;20205;-86
2022/05/28 13:57:55;;;;;;;1.27;1.10;;;;;;;;;;5055152;28;20220;-88
2022/05/28 14:00:28;;;;;;;2.25;1.45;;;;;;;;;;5055092;28;20221;-88
2022/05/28 14:03:01;;;;;;;2.00;1.10;;;;;;;;;;5054438;28;20182;-87
2022/05/28 14:05:31;;;;;;;3.33;1.42;;;;;;;;;;5055320;28;20223;-85
2022/05/28 14:08:03;;;;;;;1.60;1.05;;;;;;;;;;5055503;28;20230;-86
2022/05/28 14:10:31;;;;;;;1.48;0.95;;;;;;;;;;5055609;28;20608;-87
2022/05/28 14:13:00;;;;;;;2.40;1.20;;;;;;;;;;5054014;28;20811;-87
2022/05/28 14:15:32;;;;;;;1.02;0.90;;;;;;;;;;5055025;28;20547;-86
2022/05/28 14:18:00;;;;;;;1.60;1.27;;;;;;;;;;5055026;28;20699;-86
2022/05/28 14:20:32;;;;;;;2.75;1.40;;;;;;;;;;5055110;28;20585;-88
2022/05/28 14:23:00;;;;;;;2.20;1.40;;;;;;;;;;5054502;28;20186;-89
2022/05/28 14:25:32;;;;;;;0.80;0.80;;;;;;;;;;5054825;28;20198;-87
2022/05/28 14:28:06;;;;;;;1.05;0.95;;;;;;;;;;5054459;28;20702;-87
2022/05/28 14:30:36;;;;;;;1.33;1.00;;;;;;;;;;5054825;28;20186;-88
2022/05/28 14:33:05;;;;;;;2.67;1.20;;;;;;;;;;5053918;28;20197;-87
2022/05/28 14:35:42;;;;;;;2.30;1.10;;;;;;;;;;5054537;28;20197;-87
2022/05/28 14:38:11;;;;;;;1.38;1.10;;;;;;;;;;5053902;28;20236;-87
2022/05/28 14:40:41;;;;;;;0.80;0.80;;;;;;;;;;5052779;28;20701;-87
2022/05/28 14:43:10;;;;;;;2.55;0.90;;;;;;;;;;5053810;28;20194;-86
2022/05/28 14:45:40;;;;;;;2.00;1.10;;;;;;;;;;5052427;28;20204;-86
2022/05/28 14:48:21;;;;;;;1.75;1.08;;;;;;;;;;5053775;28;20222;-88
2022/05/28 14:50:52;;;;;;;0.95;0.88;;;;;;;;;;5054140;28;20598;-86
2022/05/28 14:53:28;;;;;;;1.77;0.90;;;;;;;;;;5053585;28;20619;-87
2022/05/28 14:55:57;;;;;;;2.10;1.13;;;;;;;;;;5054008;28;20217;-87
2022/05/28 14:58:26;;;;;;;0.80;0.80;;;;;;;;;;5054352;28;20225;-86
2022/05/28 15:01:08;;;;;;;2.47;1.10;;;;;;;;;;5054207;28;20222;-87
2022/05/28 15:03:36;;;;;;;1.25;1.13;;;;;;;;;;5053544;28;20197;-87
2022/05/28 15:06:17;;;;;;;1.00;0.90;;;;;;;;;;5053932;28;20718;-88
2022/05/28 15:08:50;;;;;;;1.15;1.00;;;;;;;;;;5053699;28;20217;-87
2022/05/28 15:11:28;;;;;;;1.27;0.90;;;;;;;;;;5053650;28;20198;-87
2022/05/28 15:14:11;;;;;;;1.50;1.23;;;;;;;;;;5053401;28;20647;-87
2022/05/28 15:16:40;;;;;;;1.23;1.13;;;;;;;;;;5053051;28;20204;-86
2022/05/28 15:19:08;;;;;;;5.53;1.92;;;;;;;;;;5053939;28;20221;-87